TA772 MROC-MSLP
Flight info
| Callsign | TA772 |
|---|---|
| Flight time | 1h 0m |
| Altitude | 34000 |
| Route | NANJO3U ULAPO DCT ALTEG UG436 AMUVO AMUVO2M |
| Aircraft | B38M/M-SDE1FGHILORVWXY/HB1 |
Departure
| Time | 2026-04-21 15:46 |
|---|---|
| Airport | Juan Santamaría International Airport (MROC) |
Arrival
| Time | 2026-04-21 16:46 |
|---|---|
| Airport | El Salvador International Airport Saint Óscar Arnulfo Romero y Galdámez (MSLP) |
| Time | Latitude | Longitude | Altitude | Speed | Heading |
|---|---|---|---|---|---|
| 2026-04-21 14:51 | 9.99756 | -84.20317 | 3036 ft | 0 kts | 339° |
| 2026-04-21 15:34 | 9.99748 | -84.20315 | 3036 ft | 2 kts | 339° |
| 2026-04-21 15:35 | 9.99734 | -84.20309 | 3036 ft | 2 kts | 338° |
| 2026-04-21 15:35 | 9.99720 | -84.20302 | 3036 ft | 2 kts | 309° |
| 2026-04-21 15:35 | 9.99714 | -84.20288 | 3036 ft | 2 kts | 274° |
| 2026-04-21 15:35 | 9.99716 | -84.20274 | 3037 ft | 2 kts | 242° |
| 2026-04-21 15:36 | 9.99723 | -84.20260 | 3038 ft | 2 kts | 250° |
| 2026-04-21 15:36 | 9.99725 | -84.20255 | 3038 ft | 0 kts | 250° |
| 2026-04-21 15:36 | 9.99724 | -84.20255 | 3038 ft | 0 kts | 250° |
| 2026-04-21 15:40 | 9.99717 | -84.20276 | 3037 ft | 5 kts | 250° |
| 2026-04-21 15:40 | 9.99697 | -84.20331 | 3034 ft | 10 kts | 250° |
| 2026-04-21 15:40 | 9.99663 | -84.20418 | 3029 ft | 15 kts | 249° |
| 2026-04-21 15:41 | 9.99616 | -84.20538 | 3023 ft | 20 kts | 248° |
| 2026-04-21 15:41 | 9.99564 | -84.20677 | 3015 ft | 18 kts | 249° |
| 2026-04-21 15:41 | 9.99522 | -84.20787 | 3009 ft | 16 kts | 249° |
| 2026-04-21 15:41 | 9.99475 | -84.20911 | 3003 ft | 21 kts | 250° |
| 2026-04-21 15:42 | 9.99418 | -84.21066 | 2995 ft | 25 kts | 250° |
| 2026-04-21 15:42 | 9.99368 | -84.21201 | 2988 ft | 17 kts | 250° |
| 2026-04-21 15:42 | 9.99320 | -84.21328 | 2981 ft | 20 kts | 249° |
| 2026-04-21 15:42 | 9.99261 | -84.21481 | 2973 ft | 24 kts | 249° |
| 2026-04-21 15:43 | 9.99202 | -84.21641 | 2962 ft | 26 kts | 249° |
| 2026-04-21 15:43 | 9.99132 | -84.21825 | 2953 ft | 25 kts | 249° |
| 2026-04-21 15:43 | 9.99080 | -84.21964 | 2945 ft | 16 kts | 249° |
| 2026-04-21 15:43 | 9.99048 | -84.22054 | 2942 ft | 12 kts | 250° |
| 2026-04-21 15:44 | 9.99020 | -84.22134 | 2939 ft | 12 kts | 246° |
| 2026-04-21 15:44 | 9.98953 | -84.22179 | 2938 ft | 9 kts | 179° |
| 2026-04-21 15:44 | 9.98920 | -84.22159 | 2940 ft | 4 kts | 104° |
| 2026-04-21 15:44 | 9.98919 | -84.22141 | 2941 ft | 1 kts | 84° |
| 2026-04-21 15:45 | 9.98920 | -84.22140 | 2941 ft | 0 kts | 81° |
| 2026-04-21 15:45 | 9.98958 | -84.22034 | 2947 ft | 53 kts | 70° |
| 2026-04-21 15:45 | 9.99211 | -84.21368 | 2979 ft | 143 kts | 70° |
| 2026-04-21 15:45 | 9.99637 | -84.20240 | 3363 ft | 190 kts | 70° |
| 2026-04-21 15:46 | 10.00125 | -84.18966 | 4347 ft | 203 kts | 68° |
| 2026-04-21 15:46 | 10.01010 | -84.17815 | 5059 ft | 222 kts | 38° |
| 2026-04-21 15:46 | 10.02494 | -84.17361 | 5627 ft | 233 kts | 3° |
| 2026-04-21 15:46 | 10.04054 | -84.17776 | 6255 ft | 238 kts | 334° |
| 2026-04-21 15:47 | 10.05241 | -84.19013 | 6576 ft | 254 kts | 303° |
| 2026-04-21 15:47 | 10.05876 | -84.20669 | 7184 ft | 255 kts | 286° |
| 2026-04-21 15:47 | 10.06067 | -84.22511 | 7731 ft | 269 kts | 274° |
| 2026-04-21 15:47 | 10.06355 | -84.24403 | 8374 ft | 274 kts | 287° |
| 2026-04-21 15:48 | 10.06981 | -84.26218 | 9074 ft | 278 kts | 293° |
| 2026-04-21 15:48 | 10.07723 | -84.28032 | 9792 ft | 284 kts | 294° |
| 2026-04-21 15:48 | 10.08497 | -84.29916 | 10401 ft | 285 kts | 294° |
| 2026-04-21 15:48 | 10.09270 | -84.31850 | 10662 ft | 313 kts | 293° |
| 2026-04-21 15:49 | 10.10077 | -84.33920 | 11596 ft | 326 kts | 295° |
| 2026-04-21 15:49 | 10.11166 | -84.35932 | 12589 ft | 332 kts | 309° |
| 2026-04-21 15:49 | 10.12758 | -84.37614 | 13696 ft | 334 kts | 321° |
| 2026-04-21 15:49 | 10.14541 | -84.39111 | 14756 ft | 339 kts | 323° |
| 2026-04-21 15:50 | 10.16398 | -84.40592 | 15755 ft | 345 kts | 323° |
| 2026-04-21 15:50 | 10.18281 | -84.42112 | 16750 ft | 351 kts | 322° |
| 2026-04-21 15:50 | 10.20178 | -84.43687 | 17726 ft | 357 kts | 321° |
| 2026-04-21 15:50 | 10.22105 | -84.45325 | 18637 ft | 364 kts | 321° |
| 2026-04-21 15:51 | 10.24032 | -84.46986 | 19503 ft | 370 kts | 321° |
| 2026-04-21 15:51 | 10.26011 | -84.48701 | 20321 ft | 377 kts | 321° |
| 2026-04-21 15:51 | 10.28016 | -84.50441 | 21117 ft | 384 kts | 321° |
| 2026-04-21 15:51 | 10.30053 | -84.52209 | 21892 ft | 390 kts | 321° |
| 2026-04-21 15:52 | 10.32142 | -84.54020 | 22664 ft | 396 kts | 321° |
| 2026-04-21 15:52 | 10.34234 | -84.55834 | 23537 ft | 399 kts | 322° |
| 2026-04-21 15:52 | 10.36351 | -84.57672 | 24401 ft | 401 kts | 321° |
| 2026-04-21 15:52 | 10.38460 | -84.59502 | 25193 ft | 405 kts | 321° |
| 2026-04-21 15:53 | 10.40604 | -84.61363 | 25967 ft | 408 kts | 322° |
| 2026-04-21 15:53 | 10.42787 | -84.63258 | 26769 ft | 411 kts | 322° |
| 2026-04-21 15:53 | 10.44956 | -84.65140 | 27492 ft | 414 kts | 322° |
| 2026-04-21 15:53 | 10.47157 | -84.67051 | 27996 ft | 419 kts | 322° |
| 2026-04-21 15:54 | 10.51612 | -84.70916 | 28077 ft | 416 kts | 322° |
| 2026-04-21 15:54 | 10.56003 | -84.74731 | 28067 ft | 416 kts | 322° |
| 2026-04-21 15:55 | 10.60408 | -84.78558 | 28056 ft | 416 kts | 321° |
| 2026-04-21 15:55 | 10.64815 | -84.82391 | 28050 ft | 417 kts | 321° |
| 2026-04-21 15:56 | 10.69214 | -84.86218 | 28043 ft | 417 kts | 321° |
| 2026-04-21 15:56 | 10.73604 | -84.90039 | 28042 ft | 417 kts | 322° |
| 2026-04-21 15:57 | 10.78008 | -84.93876 | 28040 ft | 417 kts | 322° |
| 2026-04-21 15:57 | 10.82420 | -84.97717 | 28042 ft | 416 kts | 322° |
| 2026-04-21 15:58 | 10.86832 | -85.01562 | 28035 ft | 416 kts | 322° |
| 2026-04-21 15:58 | 10.91212 | -85.05381 | 28033 ft | 416 kts | 321° |
| 2026-04-21 15:59 | 10.95624 | -85.09229 | 28026 ft | 417 kts | 321° |
| 2026-04-21 15:59 | 11.00024 | -85.13066 | 28018 ft | 417 kts | 321° |
| 2026-04-21 16:00 | 11.04262 | -85.17116 | 28017 ft | 420 kts | 313° |
| 2026-04-21 16:00 | 11.07605 | -85.21995 | 28020 ft | 422 kts | 303° |
| 2026-04-21 16:01 | 11.10481 | -85.27209 | 28014 ft | 423 kts | 300° |
| 2026-04-21 16:01 | 11.13259 | -85.32445 | 28012 ft | 423 kts | 300° |
| 2026-04-21 16:02 | 11.16070 | -85.37701 | 28011 ft | 424 kts | 300° |
| 2026-04-21 16:02 | 11.18911 | -85.42961 | 28004 ft | 422 kts | 301° |
| 2026-04-21 16:03 | 11.21746 | -85.48182 | 28002 ft | 423 kts | 301° |
| 2026-04-21 16:03 | 11.23177 | -85.50813 | 27997 ft | 423 kts | 301° |
| 2026-04-21 16:03 | 11.24595 | -85.53418 | 27993 ft | 421 kts | 301° |
| 2026-04-21 16:04 | 11.26008 | -85.56015 | 27994 ft | 422 kts | 301° |
| 2026-04-21 16:04 | 11.27437 | -85.58639 | 27998 ft | 422 kts | 301° |
| 2026-04-21 16:04 | 11.30282 | -85.63869 | 28002 ft | 422 kts | 301° |
| 2026-04-21 16:05 | 11.33112 | -85.69074 | 28006 ft | 422 kts | 300° |
| 2026-04-21 16:05 | 11.35966 | -85.74327 | 28008 ft | 422 kts | 300° |
| 2026-04-21 16:06 | 11.38789 | -85.79526 | 28002 ft | 423 kts | 300° |
| 2026-04-21 16:06 | 11.40221 | -85.82165 | 27998 ft | 422 kts | 300° |
| 2026-04-21 16:06 | 11.41629 | -85.84759 | 27999 ft | 421 kts | 300° |
| 2026-04-21 16:07 | 11.43053 | -85.87384 | 27998 ft | 421 kts | 300° |
| 2026-04-21 16:07 | 11.44462 | -85.89982 | 27997 ft | 420 kts | 300° |
| 2026-04-21 16:07 | 11.45871 | -85.92581 | 28000 ft | 421 kts | 300° |
| 2026-04-21 16:07 | 11.47289 | -85.95196 | 28001 ft | 421 kts | 300° |
| 2026-04-21 16:08 | 11.51530 | -86.03022 | 28004 ft | 421 kts | 300° |
| 2026-04-21 16:09 | 11.54353 | -86.08234 | 28003 ft | 421 kts | 300° |
| 2026-04-21 16:09 | 11.55762 | -86.10837 | 27999 ft | 422 kts | 300° |
| 2026-04-21 16:09 | 11.57186 | -86.13469 | 27998 ft | 422 kts | 300° |
| 2026-04-21 16:09 | 11.58596 | -86.16077 | 27994 ft | 421 kts | 300° |
| 2026-04-21 16:10 | 11.60008 | -86.18689 | 27995 ft | 421 kts | 300° |
| 2026-04-21 16:10 | 11.61419 | -86.21298 | 27994 ft | 421 kts | 300° |
| 2026-04-21 16:10 | 11.62832 | -86.23912 | 27996 ft | 421 kts | 300° |
| 2026-04-21 16:10 | 11.64235 | -86.26508 | 27992 ft | 421 kts | 300° |
| 2026-04-21 16:11 | 11.65650 | -86.29128 | 27992 ft | 421 kts | 300° |
| 2026-04-21 16:11 | 11.67068 | -86.31753 | 27993 ft | 420 kts | 300° |
| 2026-04-21 16:11 | 11.68466 | -86.34341 | 27989 ft | 420 kts | 300° |
| 2026-04-21 16:11 | 11.69889 | -86.36977 | 27989 ft | 421 kts | 300° |
| 2026-04-21 16:12 | 11.70819 | -86.38700 | 27988 ft | 421 kts | 300° |
| 2026-04-21 16:12 | 11.72707 | -86.42199 | 27986 ft | 421 kts | 300° |
| 2026-04-21 16:12 | 11.74118 | -86.44815 | 27983 ft | 421 kts | 300° |
| 2026-04-21 16:12 | 11.75530 | -86.47434 | 27979 ft | 421 kts | 300° |
| 2026-04-21 16:13 | 11.76950 | -86.50067 | 27977 ft | 421 kts | 300° |
| 2026-04-21 16:13 | 11.78344 | -86.52653 | 27976 ft | 421 kts | 300° |
| 2026-04-21 16:13 | 11.79752 | -86.55267 | 27977 ft | 421 kts | 300° |
| 2026-04-21 16:13 | 11.81176 | -86.57910 | 27978 ft | 421 kts | 300° |
| 2026-04-21 16:14 | 11.82573 | -86.60506 | 27978 ft | 421 kts | 300° |
| 2026-04-21 16:14 | 11.83988 | -86.63135 | 27976 ft | 420 kts | 300° |
| 2026-04-21 16:14 | 11.85391 | -86.65740 | 27977 ft | 420 kts | 300° |
| 2026-04-21 16:14 | 11.86792 | -86.68343 | 27976 ft | 421 kts | 300° |
| 2026-04-21 16:15 | 11.88207 | -86.70974 | 27974 ft | 421 kts | 300° |
| 2026-04-21 16:15 | 11.89610 | -86.73582 | 27972 ft | 421 kts | 300° |
| 2026-04-21 16:15 | 11.91021 | -86.76207 | 27971 ft | 421 kts | 300° |
| 2026-04-21 16:15 | 11.92430 | -86.78828 | 27972 ft | 421 kts | 300° |
| 2026-04-21 16:16 | 11.93831 | -86.81436 | 27969 ft | 421 kts | 300° |
| 2026-04-21 16:16 | 11.95232 | -86.84044 | 27972 ft | 421 kts | 300° |
| 2026-04-21 16:16 | 11.96638 | -86.86661 | 27970 ft | 421 kts | 300° |
| 2026-04-21 16:16 | 11.98049 | -86.89291 | 27970 ft | 421 kts | 300° |
| 2026-04-21 16:17 | 11.99458 | -86.91915 | 27967 ft | 421 kts | 300° |
| 2026-04-21 16:17 | 12.00867 | -86.94541 | 27967 ft | 420 kts | 300° |
| 2026-04-21 16:17 | 12.02252 | -86.97123 | 27969 ft | 420 kts | 300° |
| 2026-04-21 16:17 | 12.03661 | -86.99750 | 27967 ft | 421 kts | 300° |
| 2026-04-21 16:18 | 12.05076 | -87.02387 | 27967 ft | 421 kts | 300° |
| 2026-04-21 16:18 | 12.06480 | -87.05006 | 27968 ft | 421 kts | 300° |
| 2026-04-21 16:18 | 12.07883 | -87.07625 | 27968 ft | 421 kts | 300° |
| 2026-04-21 16:18 | 12.09282 | -87.10238 | 27967 ft | 422 kts | 300° |
| 2026-04-21 16:19 | 12.10685 | -87.12857 | 27968 ft | 422 kts | 300° |
| 2026-04-21 16:19 | 12.12095 | -87.15491 | 27970 ft | 422 kts | 300° |
| 2026-04-21 16:19 | 12.13509 | -87.18134 | 27966 ft | 422 kts | 300° |
| 2026-04-21 16:19 | 12.14917 | -87.20764 | 27963 ft | 421 kts | 300° |
| 2026-04-21 16:20 | 12.16315 | -87.23379 | 27967 ft | 419 kts | 300° |
| 2026-04-21 16:20 | 12.17704 | -87.25977 | 27970 ft | 420 kts | 300° |
| 2026-04-21 16:20 | 12.19097 | -87.28582 | 27973 ft | 420 kts | 300° |
| 2026-04-21 16:20 | 12.20501 | -87.31209 | 27974 ft | 420 kts | 300° |
| 2026-04-21 16:21 | 12.21898 | -87.33823 | 27972 ft | 420 kts | 300° |
| 2026-04-21 16:21 | 12.23310 | -87.36466 | 27969 ft | 420 kts | 300° |
| 2026-04-21 16:21 | 12.24693 | -87.39056 | 27967 ft | 420 kts | 300° |
| 2026-04-21 16:21 | 12.26090 | -87.41672 | 27967 ft | 420 kts | 300° |
| 2026-04-21 16:22 | 12.27482 | -87.44280 | 27966 ft | 419 kts | 300° |
| 2026-04-21 16:22 | 12.28888 | -87.46915 | 27962 ft | 419 kts | 300° |
| 2026-04-21 16:22 | 12.30285 | -87.49535 | 27965 ft | 420 kts | 300° |
| 2026-04-21 16:22 | 12.31669 | -87.52129 | 27970 ft | 420 kts | 300° |
| 2026-04-21 16:23 | 12.33071 | -87.54759 | 27971 ft | 420 kts | 300° |
| 2026-04-21 16:23 | 12.34477 | -87.57397 | 27968 ft | 421 kts | 300° |
| 2026-04-21 16:23 | 12.35866 | -87.60004 | 27975 ft | 420 kts | 300° |
| 2026-04-21 16:23 | 12.37278 | -87.62653 | 27978 ft | 421 kts | 300° |
| 2026-04-21 16:24 | 12.38676 | -87.65279 | 27978 ft | 421 kts | 299° |
| 2026-04-21 16:24 | 12.40060 | -87.67878 | 27983 ft | 421 kts | 299° |
| 2026-04-21 16:24 | 12.41472 | -87.70530 | 27980 ft | 421 kts | 299° |
| 2026-04-21 16:24 | 12.42859 | -87.73138 | 27977 ft | 420 kts | 299° |
| 2026-04-21 16:25 | 12.44250 | -87.75753 | 27963 ft | 420 kts | 299° |
| 2026-04-21 16:25 | 12.45652 | -87.78390 | 27930 ft | 421 kts | 299° |
| 2026-04-21 16:25 | 12.47057 | -87.81032 | 27926 ft | 421 kts | 299° |
| 2026-04-21 16:25 | 12.48445 | -87.83644 | 27944 ft | 420 kts | 299° |
| 2026-04-21 16:26 | 12.49837 | -87.86265 | 27937 ft | 420 kts | 300° |
| 2026-04-21 16:26 | 12.51244 | -87.88914 | 27898 ft | 421 kts | 299° |
| 2026-04-21 16:26 | 12.52634 | -87.91530 | 27855 ft | 422 kts | 299° |
| 2026-04-21 16:26 | 12.54034 | -87.94152 | 27856 ft | 422 kts | 300° |
| 2026-04-21 16:27 | 12.55516 | -87.96752 | 27881 ft | 421 kts | 303° |
| 2026-04-21 16:27 | 12.57215 | -87.99187 | 27803 ft | 422 kts | 310° |
| 2026-04-21 16:27 | 12.59162 | -88.01444 | 27702 ft | 423 kts | 314° |
| 2026-04-21 16:27 | 12.61222 | -88.03577 | 27778 ft | 420 kts | 316° |
| 2026-04-21 16:28 | 12.63318 | -88.05652 | 27271 ft | 420 kts | 317° |
| 2026-04-21 16:28 | 12.65404 | -88.07686 | 27068 ft | 407 kts | 317° |
| 2026-04-21 16:28 | 12.67432 | -88.09666 | 26669 ft | 401 kts | 317° |
| 2026-04-21 16:28 | 12.69449 | -88.11648 | 26117 ft | 399 kts | 317° |
| 2026-04-21 16:29 | 12.71430 | -88.13612 | 25575 ft | 397 kts | 316° |
| 2026-04-21 16:29 | 12.73387 | -88.15567 | 25036 ft | 394 kts | 316° |
| 2026-04-21 16:29 | 12.75343 | -88.17533 | 24522 ft | 391 kts | 316° |
| 2026-04-21 16:29 | 12.77260 | -88.19469 | 23994 ft | 389 kts | 316° |
| 2026-04-21 16:30 | 12.79198 | -88.21431 | 23462 ft | 386 kts | 316° |
| 2026-04-21 16:30 | 12.81097 | -88.23357 | 22987 ft | 382 kts | 316° |
| 2026-04-21 16:30 | 12.82965 | -88.25256 | 22473 ft | 380 kts | 316° |
| 2026-04-21 16:30 | 12.84827 | -88.27149 | 21933 ft | 378 kts | 316° |
| 2026-04-21 16:31 | 12.86723 | -88.29083 | 20982 ft | 388 kts | 315° |
| 2026-04-21 16:31 | 12.88604 | -88.31078 | 20005 ft | 397 kts | 314° |
| 2026-04-21 16:31 | 12.90480 | -88.33142 | 19144 ft | 401 kts | 314° |
| 2026-04-21 16:31 | 12.92381 | -88.35267 | 18409 ft | 399 kts | 314° |
| 2026-04-21 16:32 | 12.94234 | -88.37354 | 17806 ft | 395 kts | 314° |
| 2026-04-21 16:32 | 12.96061 | -88.39410 | 17266 ft | 388 kts | 314° |
| 2026-04-21 16:32 | 12.97864 | -88.41430 | 16753 ft | 382 kts | 314° |
| 2026-04-21 16:32 | 12.99660 | -88.43433 | 16243 ft | 375 kts | 314° |
| 2026-04-21 16:33 | 13.01397 | -88.45364 | 15758 ft | 369 kts | 314° |
| 2026-04-21 16:33 | 13.03131 | -88.47287 | 15261 ft | 363 kts | 314° |
| 2026-04-21 16:33 | 13.04827 | -88.49167 | 14806 ft | 357 kts | 315° |
| 2026-04-21 16:33 | 13.06499 | -88.51021 | 14309 ft | 352 kts | 315° |
| 2026-04-21 16:34 | 13.08150 | -88.52850 | 13847 ft | 347 kts | 315° |
| 2026-04-21 16:34 | 13.09763 | -88.54639 | 13366 ft | 341 kts | 315° |
| 2026-04-21 16:34 | 13.11375 | -88.56426 | 12917 ft | 336 kts | 315° |
| 2026-04-21 16:34 | 13.12961 | -88.58186 | 12460 ft | 332 kts | 315° |
| 2026-04-21 16:35 | 13.14486 | -88.59951 | 12033 ft | 329 kts | 310° |
| 2026-04-21 16:35 | 13.15745 | -88.61868 | 11605 ft | 328 kts | 300° |
| 2026-04-21 16:35 | 13.16630 | -88.64022 | 11121 ft | 327 kts | 291° |
| 2026-04-21 16:35 | 13.17347 | -88.66216 | 10681 ft | 324 kts | 290° |
| 2026-04-21 16:36 | 13.18047 | -88.68388 | 10259 ft | 320 kts | 290° |
| 2026-04-21 16:36 | 13.18742 | -88.70525 | 10055 ft | 309 kts | 290° |
| 2026-04-21 16:36 | 13.19421 | -88.72591 | 9825 ft | 303 kts | 291° |
| 2026-04-21 16:36 | 13.20096 | -88.74625 | 9399 ft | 303 kts | 291° |
| 2026-04-21 16:37 | 13.20780 | -88.76676 | 9031 ft | 301 kts | 291° |
| 2026-04-21 16:37 | 13.21452 | -88.78690 | 8664 ft | 298 kts | 291° |
| 2026-04-21 16:37 | 13.22119 | -88.80692 | 8296 ft | 296 kts | 291° |
| 2026-04-21 16:37 | 13.22782 | -88.82681 | 7940 ft | 294 kts | 291° |
| 2026-04-21 16:38 | 13.23446 | -88.84677 | 7566 ft | 292 kts | 291° |
| 2026-04-21 16:38 | 13.24096 | -88.86633 | 7213 ft | 291 kts | 291° |
| 2026-04-21 16:38 | 13.24747 | -88.88587 | 6829 ft | 290 kts | 291° |
| 2026-04-21 16:38 | 13.25400 | -88.90550 | 6456 ft | 288 kts | 291° |
| 2026-04-21 16:39 | 13.26044 | -88.92487 | 6100 ft | 286 kts | 291° |
| 2026-04-21 16:39 | 13.26682 | -88.94408 | 5748 ft | 284 kts | 291° |
| 2026-04-21 16:39 | 13.27317 | -88.96319 | 5424 ft | 282 kts | 291° |
| 2026-04-21 16:39 | 13.27944 | -88.98210 | 5174 ft | 276 kts | 291° |
| 2026-04-21 16:40 | 13.28554 | -89.00052 | 4952 ft | 270 kts | 291° |
| 2026-04-21 16:40 | 13.29146 | -89.01840 | 4739 ft | 265 kts | 291° |
| 2026-04-21 16:40 | 13.29741 | -89.03632 | 4512 ft | 260 kts | 291° |
| 2026-04-21 16:40 | 13.30315 | -89.05359 | 4227 ft | 259 kts | 290° |
| 2026-04-21 16:41 | 13.30894 | -89.07101 | 3943 ft | 257 kts | 290° |
| 2026-04-21 16:41 | 13.31476 | -89.08856 | 3671 ft | 255 kts | 290° |
| 2026-04-21 16:41 | 13.32040 | -89.10556 | 3416 ft | 253 kts | 290° |
| 2026-04-21 16:41 | 13.32634 | -89.12255 | 3172 ft | 248 kts | 294° |
| 2026-04-21 16:42 | 13.33526 | -89.13715 | 2983 ft | 237 kts | 316° |
| 2026-04-21 16:42 | 13.34830 | -89.14631 | 2977 ft | 218 kts | 337° |
| 2026-04-21 16:42 | 13.36228 | -89.15111 | 2968 ft | 202 kts | 348° |
| 2026-04-21 16:42 | 13.37607 | -89.15349 | 2682 ft | 204 kts | 356° |
| 2026-04-21 16:43 | 13.39000 | -89.15260 | 2421 ft | 200 kts | 14° |
| 2026-04-21 16:43 | 13.40230 | -89.14750 | 2144 ft | 185 kts | 30° |
| 2026-04-21 16:43 | 13.41091 | -89.13902 | 1996 ft | 157 kts | 59° |
| 2026-04-21 16:43 | 13.41542 | -89.12939 | 1725 ft | 146 kts | 66° |
| 2026-04-21 16:44 | 13.41898 | -89.11977 | 1378 ft | 143 kts | 69° |
| 2026-04-21 16:44 | 13.42207 | -89.11009 | 1054 ft | 140 kts | 70° |
| 2026-04-21 16:44 | 13.42491 | -89.10066 | 735 ft | 138 kts | 71° |
| 2026-04-21 16:44 | 13.42806 | -89.09108 | 512 ft | 142 kts | 66° |
| 2026-04-21 16:45 | 13.43156 | -89.08179 | 349 ft | 139 kts | 66° |
| 2026-04-21 16:45 | 13.43490 | -89.07251 | 182 ft | 138 kts | 67° |
| 2026-04-21 16:45 | 13.43816 | -89.06338 | 95 ft | 128 kts | 65° |
| 2026-04-21 16:45 | 13.44089 | -89.05596 | 105 ft | 89 kts | 70° |
| 2026-04-21 16:46 | 13.44253 | -89.05137 | 108 ft | 46 kts | 69° |
| 2026-04-21 16:46 | 13.44348 | -89.04871 | 111 ft | 34 kts | 70° |
| 2026-04-21 16:46 | 13.44421 | -89.04663 | 114 ft | 30 kts | 69° |
| 2026-04-21 16:46 | 13.44491 | -89.04474 | 117 ft | 27 kts | 69° |
| 2026-04-21 16:47 | 13.44555 | -89.04298 | 119 ft | 21 kts | 74° |
| 2026-04-21 16:47 | 13.44632 | -89.04218 | 120 ft | 16 kts | 4° |
| 2026-04-21 16:47 | 13.44726 | -89.04267 | 122 ft | 15 kts | 297° |
| 2026-04-21 16:47 | 13.44713 | -89.04377 | 121 ft | 17 kts | 250° |
| 2026-04-21 16:48 | 13.44670 | -89.04504 | 118 ft | 20 kts | 250° |
| 2026-04-21 16:48 | 13.44617 | -89.04649 | 117 ft | 22 kts | 250° |
| 2026-04-21 16:48 | 13.44559 | -89.04808 | 115 ft | 24 kts | 249° |
| 2026-04-21 16:48 | 13.44496 | -89.04976 | 113 ft | 26 kts | 250° |
| 2026-04-21 16:49 | 13.44430 | -89.05160 | 112 ft | 28 kts | 249° |
| 2026-04-21 16:49 | 13.44375 | -89.05308 | 112 ft | 15 kts | 250° |
| 2026-04-21 16:49 | 13.44379 | -89.05391 | 113 ft | 8 kts | 311° |
| 2026-04-21 16:49 | 13.44413 | -89.05432 | 116 ft | 6 kts | 290° |
| 2026-04-21 16:50 | 13.44406 | -89.05476 | 116 ft | 6 kts | 250° |
| 2026-04-21 16:50 | 13.44412 | -89.05513 | 117 ft | 5 kts | 334° |
| 2026-04-21 16:50 | 13.44440 | -89.05523 | 118 ft | 3 kts | 340° |
| 2026-04-21 16:50 | 13.44457 | -89.05529 | 119 ft | 1 kts | 340° |
| 2026-04-21 16:51 | 13.44465 | -89.05532 | 119 ft | 0 kts | 341° |
| 2026-04-21 16:51 | 13.44467 | -89.05533 | 119 ft | 0 kts | 341° |
| 2026-04-21 16:51 | 13.44471 | -89.05534 | 120 ft | 0 kts | 340° |
| 2026-04-21 16:51 | 13.44474 | -89.05535 | 120 ft | 0 kts | 340° |